Station: FEUCHT (USA-AF), ICAO: EDIG, Synop: Synop: 10764,
Koordinaten: 49 23 N 011 11 E, Hoehe: 386m, Entfernung: 7.35km


Station: Nuernberg, ICAO: EDDN, Synop: Synop: 10763,
Koordinaten: 4930'00''N 01103'00''E, Hoehe: 318m, Entfernung: 8.81km
2018/02/22 06:50
EDDN 220650Z 04005KT 9999 FEW023 M04/M08 Q1019 R28/19//94 NOSIG


Station: Roth, ICAO: ETHR, Synop: Synop: 10765,
Koordinaten: 4913'00''N 01106'00''E, Hoehe: 388m, Entfernung: 24.61km
2013/12/05 06:53
ETHR 050653Z 25004KT 1200 BR OVC003 02/02 Q1027 AMB


Station: Ansbach / Katterbach, ICAO: ETEB, Synop: Synop: 10755,
Koordinaten: 4919'00''N 01038'00''E, Hoehe: 467m, Entfernung: 38.02km
2018/02/22 06:56
ETEB 220656Z AUTO 05009KT 9999 OVC110 M05/M08 A3004 RMK AO2 SLP220 T10511085 $


Station: Illesheim, ICAO: ETIK, Synop: Synop: 10752,
Koordinaten: 4928'00''N 01023'00''E, Hoehe: 325m, Entfernung: 53.67km
2018/02/22 06:56
ETIK 220656Z AUTO 04006KT 9999 CLR M06/M06 A3010 RMK AO2 SLP220 T10611062 $


Station: ILLESHEIM (USAF), ICAO: EDIK, Synop: Synop: 10752,
Koordinaten: 49 28 N 010 23 E, Hoehe: 325m, Entfernung: 53.67km


mehr Wetter
WetterInfo - adds.pl 2.6.003 DL3EL © 2004-2017 [202638]